createdAt,value
2023-04-02T00:01:47.302Z,77.30
2023-04-02T00:07:16.640Z,77.19
2023-04-02T00:12:19.760Z,77.16
2023-04-02T00:17:25.004Z,77.20
2023-04-02T00:22:29.993Z,77.43
2023-04-02T00:27:32.473Z,77.78
2023-04-02T00:32:38.824Z,77.59
2023-04-02T00:37:42.216Z,77.61
2023-04-02T00:42:44.833Z,77.79
2023-04-02T00:47:46.596Z,77.89
2023-04-02T00:52:54.429Z,77.60
2023-04-02T00:57:57.933Z,77.68
2023-04-02T01:03:17.823Z,77.97
2023-04-02T01:08:37.918Z,78.04
2023-04-02T01:13:54.755Z,78.12
2023-04-02T01:19:08.799Z,78.31
2023-04-02T01:24:14.668Z,78.54
2023-04-02T01:29:27.609Z,78.47
2023-04-02T01:34:30.886Z,78.66
2023-04-02T01:39:44.648Z,78.34
2023-04-02T01:44:59.785Z,78.64
2023-04-02T01:50:16.656Z,78.95
2023-04-02T01:55:47.106Z,79.21
2023-04-02T02:00:57.018Z,78.96
2023-04-02T02:05:59.648Z,78.77
2023-04-02T02:11:02.594Z,79.09
2023-04-02T02:16:05.310Z,78.80
2023-04-02T02:21:10.630Z,78.78
2023-04-02T02:26:14.488Z,78.68
2023-04-02T02:31:22.893Z,78.66
2023-04-02T02:36:28.710Z,78.27
2023-04-02T02:41:44.959Z,78.43
2023-04-02T02:46:54.229Z,79.07
2023-04-02T02:52:01.805Z,78.89
2023-04-02T02:57:11.616Z,79.15
2023-04-02T03:02:14.882Z,78.97
2023-04-02T03:07:19.328Z,78.61
2023-04-02T03:12:34.906Z,78.89
2023-04-02T03:17:45.945Z,79.13
2023-04-02T03:22:56.237Z,78.94
2023-04-02T03:28:06.274Z,79.49
2023-04-02T03:33:34.146Z,79.54
2023-04-02T03:38:44.172Z,79.85
2023-04-02T03:43:49.221Z,79.58
2023-04-02T03:49:06.264Z,79.41
2023-04-02T03:54:15.618Z,80.04
2023-04-02T03:59:42.808Z,80.32
2023-04-02T04:04:46.962Z,80.65
2023-04-02T04:09:52.614Z,80.78
2023-04-02T04:15:22.605Z,80.87
2023-04-02T04:20:29.496Z,80.80
2023-04-02T04:25:34.354Z,80.39
2023-04-02T04:31:00.236Z,80.13
2023-04-02T04:36:03.842Z,79.93
2023-04-02T04:41:24.518Z,79.76
2023-04-02T04:46:33.061Z,79.93
2023-04-02T04:51:42.439Z,79.68
2023-04-02T04:56:55.736Z,79.78
2023-04-02T05:02:07.769Z,79.22
2023-04-02T05:07:18.539Z,79.34
2023-04-02T05:12:35.381Z,79.89
2023-04-02T05:17:51.387Z,80.09
2023-04-02T05:23:12.436Z,79.83
2023-04-02T05:28:29.921Z,79.82
2023-04-02T05:33:34.157Z,79.75
2023-04-02T05:38:38.178Z,79.88
2023-04-02T05:43:46.229Z,79.49
2023-04-02T05:48:52.108Z,79.23
2023-04-02T05:54:01.434Z,79.27
2023-04-02T05:59:29.856Z,79.16
2023-04-02T06:04:44.967Z,79.51
2023-04-02T06:09:57.079Z,79.42
2023-04-02T06:14:59.118Z,79.39
2023-04-02T06:20:04.122Z,79.95
2023-04-02T06:25:15.873Z,79.95
2023-04-02T06:30:25.421Z,79.95
2023-04-02T06:35:28.085Z,79.93
2023-04-02T06:40:33.635Z,79.41
2023-04-02T06:45:42.173Z,79.15
2023-04-02T06:50:51.198Z,79.00
2023-04-02T06:56:22.352Z,78.79
2023-04-02T07:01:33.888Z,78.32
2023-04-02T07:06:35.571Z,78.60
2023-04-02T07:11:37.245Z,78.56
2023-04-02T07:16:41.457Z,78.43
2023-04-02T07:21:42.954Z,79.01
2023-04-02T07:26:44.556Z,79.41
2023-04-02T07:31:46.387Z,79.98
2023-04-02T07:36:49.262Z,79.50
2023-04-02T07:41:56.423Z,79.26
2023-04-02T07:46:58.209Z,78.42
2023-04-02T07:51:59.798Z,77.90
2023-04-02T07:57:01.997Z,77.33
2023-04-02T08:02:04.514Z,77.14
2023-04-02T08:07:06.453Z,76.17
2023-04-02T08:12:08.036Z,76.43
2023-04-02T08:17:09.593Z,76.18
2023-04-02T08:22:11.798Z,75.45
2023-04-02T08:27:15.191Z,75.70
2023-04-02T08:32:17.374Z,75.58
2023-04-02T08:37:18.868Z,75.98
2023-04-02T08:42:29.634Z,75.92
2023-04-02T08:47:32.690Z,75.97
2023-04-02T08:52:37.544Z,75.73
2023-04-02T08:57:52.236Z,75.06
2023-04-02T09:03:03.606Z,74.27
2023-04-02T09:08:15.444Z,73.89
2023-04-02T09:13:24.231Z,73.58
2023-04-02T09:18:30.752Z,73.20
2023-04-02T09:23:32.315Z,73.60
2023-04-02T09:28:33.840Z,73.31
2023-04-02T09:33:47.512Z,73.21
2023-04-02T09:39:19.944Z,72.48
2023-04-02T09:44:27.449Z,72.66
2023-04-02T09:49:40.087Z,72.29
2023-04-02T09:54:41.734Z,72.46
2023-04-02T09:59:43.407Z,72.77
2023-04-02T10:04:48.440Z,73.32
2023-04-02T10:10:02.285Z,73.11
2023-04-02T10:15:06.122Z,72.84
2023-04-02T10:20:26.271Z,72.73
2023-04-02T10:25:36.209Z,73.22
2023-04-02T10:31:05.151Z,72.96
2023-04-02T10:36:30.399Z,72.99
2023-04-02T10:41:57.465Z,73.21
2023-04-02T10:47:13.152Z,73.34
2023-04-02T10:52:24.409Z,73.73
2023-04-02T10:57:41.281Z,73.66
2023-04-02T11:03:09.507Z,73.65
2023-04-02T11:08:20.013Z,73.77
2023-04-02T11:13:26.744Z,73.87
2023-04-02T11:18:37.506Z,73.72
2023-04-02T11:23:55.694Z,73.16
2023-04-02T11:29:21.562Z,73.54
2023-04-02T11:34:41.389Z,74.14
2023-04-02T11:39:57.014Z,74.30
2023-04-02T11:45:01.995Z,73.83
2023-04-02T11:50:05.011Z,74.25
2023-04-02T11:55:24.456Z,74.89
2023-04-02T12:00:49.585Z,75.23
2023-04-02T12:06:25.741Z,76.09
2023-04-02T12:11:32.898Z,76.87
2023-04-02T12:16:36.131Z,77.44
2023-04-02T12:21:37.981Z,78.52
2023-04-02T12:26:42.368Z,79.22
2023-04-02T12:31:46.594Z,79.23
2023-04-02T12:36:59.603Z,78.55
2023-04-02T12:42:01.688Z,77.53
2023-04-02T12:47:04.669Z,77.81
2023-04-02T12:52:19.397Z,78.99
2023-04-02T12:57:26.940Z,79.24
2023-04-02T13:02:32.224Z,79.23
2023-04-02T13:07:34.010Z,79.33
2023-04-02T13:12:38.316Z,79.75
2023-04-02T13:17:47.946Z,79.83
2023-04-02T13:22:49.650Z,78.98
2023-04-02T13:27:51.309Z,78.94
2023-04-02T13:32:53.130Z,78.27
2023-04-02T13:37:54.787Z,78.89
2023-04-02T13:42:56.546Z,79.66
2023-04-02T13:48:01.338Z,79.53
2023-04-02T13:53:10.620Z,79.78
2023-04-02T13:58:12.396Z,80.20
2023-04-02T14:03:19.187Z,79.64
2023-04-02T14:08:26.910Z,79.60
2023-04-02T14:13:49.841Z,79.43
2023-04-02T14:19:13.930Z,79.34
2023-04-02T14:24:33.825Z,79.43
2023-04-02T14:29:46.829Z,79.94
2023-04-02T14:35:00.622Z,79.95
2023-04-02T14:40:17.536Z,81.08
2023-04-02T14:45:42.806Z,80.06
2023-04-02T14:50:44.486Z,80.12
2023-04-02T14:55:49.930Z,79.86
2023-04-02T15:00:57.593Z,80.30
2023-04-02T15:06:03.524Z,80.63
2023-04-02T15:11:16.457Z,80.64
2023-04-02T15:16:21.440Z,80.17
2023-04-02T15:21:23.266Z,80.62
2023-04-02T15:26:51.861Z,80.26
2023-04-02T15:32:05.350Z,80.32
2023-04-02T15:37:16.382Z,81.05
2023-04-02T15:42:27.883Z,80.57
2023-04-02T15:48:12.330Z,80.57
2023-04-02T15:53:31.198Z,80.71
2023-04-02T15:59:03.963Z,80.77
2023-04-02T16:04:21.538Z,81.10
2023-04-02T16:10:07.025Z,81.37
2023-04-02T16:15:16.501Z,81.54
2023-04-02T16:20:27.472Z,81.37
2023-04-02T16:25:36.128Z,81.33
2023-04-02T16:31:01.671Z,81.17
2023-04-02T16:36:22.464Z,82.07
2023-04-02T16:41:50.698Z,81.88
2023-04-02T16:46:52.358Z,82.20
2023-04-02T16:52:29.216Z,82.49
2023-04-02T16:57:42.896Z,82.52
2023-04-02T17:03:09.060Z,82.12
2023-04-02T17:08:30.549Z,82.26
2023-04-02T17:13:50.461Z,82.91
2023-04-02T17:18:55.488Z,83.13
2023-04-02T17:23:58.580Z,83.21
2023-04-02T17:29:08.463Z,83.08
2023-04-02T17:34:13.993Z,83.37
2023-04-02T17:39:39.590Z,83.24
2023-04-02T17:45:07.129Z,83.32
2023-04-02T17:50:44.316Z,83.62
2023-04-02T17:56:17.510Z,83.61
2023-04-02T18:01:28.505Z,83.60
2023-04-02T18:06:36.084Z,83.69
2023-04-02T18:11:50.629Z,83.73
2023-04-02T18:17:43.134Z,83.99
2023-04-02T18:23:02.795Z,84.02
2023-04-02T18:28:30.446Z,84.12
2023-04-02T18:33:34.872Z,83.83
2023-04-02T18:39:17.523Z,83.76
2023-04-02T18:45:20.436Z,83.48
2023-04-02T18:50:32.649Z,83.16
2023-04-02T18:55:34.505Z,82.86
2023-04-02T19:00:40.094Z,82.60
2023-04-02T19:05:49.560Z,82.45
2023-04-02T19:10:57.851Z,82.52
2023-04-02T19:16:17.646Z,82.54
2023-04-02T19:21:44.777Z,82.26
2023-04-02T19:27:25.713Z,82.27
2023-04-02T19:32:36.181Z,81.95
2023-04-02T19:37:43.467Z,82.01
2023-04-02T19:42:51.343Z,81.93
2023-04-02T19:47:53.625Z,81.78
2023-04-02T19:52:55.184Z,81.86
2023-04-02T19:58:08.511Z,81.80
2023-04-02T20:03:18.212Z,81.70
2023-04-02T20:08:19.944Z,81.31
2023-04-02T20:13:21.637Z,80.59
2023-04-02T20:18:23.197Z,79.81
2023-04-02T20:23:25.051Z,79.26
2023-04-02T20:28:27.726Z,79.21
2023-04-02T20:33:29.329Z,78.42
2023-04-02T20:38:32.180Z,78.25
2023-04-02T20:43:34.418Z,77.76
2023-04-02T20:48:36.580Z,76.13
2023-04-02T20:53:38.534Z,75.07
2023-04-02T20:58:41.779Z,73.79
2023-04-02T21:03:43.736Z,73.50
2023-04-02T21:08:45.425Z,73.10
2023-04-02T21:13:47.007Z,73.36
2023-04-02T21:18:50.925Z,73.72
2023-04-02T21:24:01.088Z,73.16
2023-04-02T21:29:03.786Z,72.07
2023-04-02T21:34:06.837Z,71.77
2023-04-02T21:39:27.273Z,71.79
2023-04-02T21:44:28.998Z,72.16
2023-04-02T21:49:30.627Z,72.15
2023-04-02T21:54:32.322Z,72.59
2023-04-02T21:59:33.846Z,71.98
2023-04-02T22:04:35.400Z,71.84
2023-04-02T22:09:36.950Z,70.96
2023-04-02T22:14:38.445Z,70.22
2023-04-02T22:19:39.956Z,68.87
2023-04-02T22:24:41.456Z,67.70
2023-04-02T22:29:42.968Z,66.84
2023-04-02T22:34:45.759Z,65.56
2023-04-02T22:39:47.387Z,65.59
2023-04-02T22:44:48.939Z,63.62
2023-04-02T22:49:50.687Z,63.92
2023-04-02T22:54:52.216Z,63.62
2023-04-02T22:59:53.752Z,63.51
2023-04-02T23:04:55.435Z,62.90
2023-04-02T23:09:57.427Z,63.51
2023-04-02T23:14:59.748Z,62.36
2023-04-02T23:20:01.392Z,62.55
2023-04-02T23:25:04.413Z,61.72
2023-04-02T23:30:07.116Z,62.10
2023-04-02T23:35:09.683Z,62.35
2023-04-02T23:40:11.579Z,62.46
2023-04-02T23:45:13.060Z,61.91
2023-04-02T23:50:14.823Z,62.32
2023-04-02T23:55:16.352Z,61.92
